< < Back
Terminal Aerodrome Forecast


Current Version              Previous Versions:   1  2  3  4  5  6  7  8  9  

Terminal Aerodrome Forecast

407
FTUS42 KGSP 041740
TAFGSP
TAF
KGSP 041740Z 0418/0518 33005KT P6SM FEW060
     FM042000 05005KT P6SM VCTS SCT070CB
     FM050300 05003KT P6SM SCT060 BKN250 PROB30 0503/0507 4SM TSRA
      BKN040CB
     FM050700 02004KT P6SM SCT060
     FM051400 03006KT P6SM BKN050 PROB30 0515/0518 4SM TSRA
      BKN040CB=



Latest METAR

106
SAUS70 KWBC 042300 RRK
MTRGSP
METAR KGSP 042253Z 05004KT 9SM -TSRA SCT070 BKN095 OVC110 28/21 A2998
RMK AO2 RAB41 TSB40 SLP140 P0000 T02780211


USA.gov is the U.S. government's official web portal to all federal, state and local government web resources and services.